createdAt,value
2019-04-07T00:01:17.608Z,20.63
2019-04-07T00:03:46.098Z,19.77
2019-04-07T00:06:14.637Z,20.70
2019-04-07T00:08:43.256Z,19.90
2019-04-07T00:11:11.786Z,20.07
2019-04-07T00:13:40.253Z,20.40
2019-04-07T00:16:08.764Z,19.20
2019-04-07T00:18:37.383Z,19.87
2019-04-07T00:21:06.211Z,19.03
2019-04-07T00:23:34.888Z,20.17
2019-04-07T00:26:04.097Z,18.83
2019-04-07T00:28:32.760Z,20.57
2019-04-07T00:31:01.944Z,18.30
2019-04-07T00:33:31.131Z,18.50
2019-04-07T00:35:59.585Z,20.20
2019-04-07T00:38:28.365Z,19.10
2019-04-07T00:40:56.936Z,18.50
2019-04-07T00:43:25.385Z,19.20
2019-04-07T00:45:53.884Z,18.10
2019-04-07T00:48:22.430Z,19.67
2019-04-07T00:50:51.282Z,18.27
2019-04-07T00:53:20.044Z,18.37
2019-04-07T00:55:48.586Z,20.50
2019-04-07T00:58:17.050Z,17.93
2019-04-07T01:00:45.610Z,19.17
2019-04-07T01:03:14.072Z,19.40
2019-04-07T01:05:43.508Z,20.00
2019-04-07T01:08:12.092Z,18.83
2019-04-07T01:10:40.600Z,18.17
2019-04-07T01:13:09.270Z,19.23
2019-04-07T01:15:38.338Z,21.00
2019-04-07T01:18:06.870Z,19.00
2019-04-07T01:20:35.407Z,19.33
2019-04-07T01:23:03.970Z,18.90
2019-04-07T01:25:32.548Z,20.83
2019-04-07T01:28:00.979Z,20.27
2019-04-07T01:30:29.427Z,21.43
2019-04-07T01:32:57.864Z,19.77
2019-04-07T01:35:26.766Z,20.67
2019-04-07T01:37:56.096Z,20.50
2019-04-07T01:40:24.682Z,21.10
2019-04-07T01:43:01.070Z,21.70
2019-04-07T01:45:37.857Z,22.47
2019-04-07T01:48:16.826Z,21.00
2019-04-07T01:50:55.652Z,22.47
2019-04-07T01:53:42.240Z,19.50
2019-04-07T01:56:21.806Z,21.40
2019-04-07T01:59:01.507Z,20.80
2019-04-07T02:01:48.092Z,20.00
2019-04-07T02:04:21.927Z,20.77
2019-04-07T02:07:01.077Z,20.97
2019-04-07T02:09:31.629Z,20.50
2019-04-07T02:12:20.195Z,21.27
2019-04-07T02:14:53.310Z,20.90
2019-04-07T02:17:23.509Z,20.20
2019-04-07T02:20:08.610Z,19.70
2019-04-07T02:22:54.710Z,19.43
2019-04-07T02:25:27.595Z,21.17
2019-04-07T02:27:57.736Z,19.23
2019-04-07T02:30:46.152Z,19.57
2019-04-07T02:33:19.177Z,18.90
2019-04-07T02:36:15.732Z,19.40
2019-04-07T02:38:40.702Z,19.00
2019-04-07T02:41:13.916Z,19.10
2019-04-07T02:43:53.080Z,18.87
2019-04-07T02:46:27.014Z,17.97
2019-04-07T02:49:04.173Z,18.10
2019-04-07T02:51:40.610Z,18.90
2019-04-07T02:54:13.653Z,18.63
2019-04-07T02:56:47.300Z,18.10
2019-04-07T02:59:19.997Z,18.40
2019-04-07T03:01:50.045Z,18.63
2019-04-07T03:04:32.925Z,16.87
2019-04-07T03:07:03.173Z,19.50
2019-04-07T03:09:40.007Z,17.37
2019-04-07T03:12:27.586Z,17.30
2019-04-07T03:14:58.475Z,16.93
2019-04-07T03:17:47.774Z,16.93
2019-04-07T03:20:18.773Z,18.40
2019-04-07T03:22:49.073Z,18.13
2019-04-07T03:25:34.382Z,16.40
2019-04-07T03:28:21.428Z,18.90
2019-04-07T03:30:52.503Z,18.70
2019-04-07T03:33:35.108Z,18.53
2019-04-07T03:36:15.032Z,18.17
2019-04-07T03:38:46.223Z,18.87
2019-04-07T03:41:21.941Z,20.13
2019-04-07T03:43:59.149Z,18.53
2019-04-07T03:46:32.577Z,18.03
2019-04-07T03:49:09.324Z,19.37
2019-04-07T03:51:46.102Z,18.33
2019-04-07T03:54:25.271Z,19.77
2019-04-07T03:57:04.875Z,18.43
2019-04-07T03:59:35.283Z,18.60
2019-04-07T04:02:18.011Z,19.10
2019-04-07T04:04:48.774Z,19.40
2019-04-07T04:07:28.485Z,18.87
2019-04-07T04:09:51.773Z,19.73
2019-04-07T04:12:31.712Z,19.67
2019-04-07T04:15:15.102Z,20.70
2019-04-07T04:17:43.665Z,20.90
2019-04-07T04:20:13.009Z,20.00
2019-04-07T04:22:41.488Z,20.80
2019-04-07T04:25:10.697Z,21.00
2019-04-07T04:27:39.417Z,19.47
2019-04-07T04:30:10.278Z,20.50
2019-04-07T04:32:39.661Z,20.60
2019-04-07T04:35:09.251Z,19.63
2019-04-07T04:37:44.191Z,19.73
2019-04-07T04:40:09.853Z,18.27
2019-04-07T04:42:38.379Z,20.23
2019-04-07T04:45:08.408Z,20.23
2019-04-07T04:47:37.687Z,19.77
2019-04-07T04:50:09.309Z,21.17
2019-04-07T04:52:38.327Z,19.47
2019-04-07T04:55:07.293Z,20.57
2019-04-07T04:57:37.615Z,19.50
2019-04-07T05:00:09.181Z,21.13
2019-04-07T05:02:38.265Z,20.20
2019-04-07T05:05:09.571Z,18.90
2019-04-07T05:07:50.044Z,18.13
2019-04-07T05:10:08.805Z,20.20
2019-04-07T05:12:37.899Z,19.20
2019-04-07T05:15:07.667Z,20.63
2019-04-07T05:17:36.867Z,19.53
2019-04-07T05:20:06.953Z,19.67
2019-04-07T05:22:35.843Z,20.47
2019-04-07T05:25:07.037Z,20.33
2019-04-07T05:27:35.536Z,19.90
2019-04-07T05:30:06.700Z,21.07
2019-04-07T05:32:35.228Z,19.47
2019-04-07T05:35:04.413Z,20.50
2019-04-07T05:37:32.975Z,22.70
2019-04-07T05:40:02.908Z,20.57
2019-04-07T05:42:32.699Z,23.10
2019-04-07T05:45:01.383Z,23.50
2019-04-07T05:47:29.922Z,21.30
2019-04-07T05:49:59.647Z,22.93
2019-04-07T05:52:28.548Z,21.63
2019-04-07T05:54:58.788Z,23.93
2019-04-07T05:57:30.771Z,22.80
2019-04-07T05:59:57.512Z,22.40
2019-04-07T06:02:26.541Z,22.03
2019-04-07T06:04:58.479Z,23.20
2019-04-07T06:07:30.259Z,24.90
2019-04-07T06:09:56.401Z,24.03
2019-04-07T06:12:24.841Z,23.17
2019-04-07T06:14:53.451Z,27.30
2019-04-07T06:17:25.649Z,23.47
2019-04-07T06:19:52.692Z,24.77
2019-04-07T06:22:22.682Z,25.17
2019-04-07T06:24:52.049Z,26.03
2019-04-07T06:27:20.469Z,24.57
2019-04-07T06:29:48.927Z,24.83
2019-04-07T06:32:17.760Z,24.70
2019-04-07T06:34:49.011Z,26.37
2019-04-07T06:37:16.440Z,26.80
2019-04-07T06:39:47.014Z,25.47
2019-04-07T06:42:15.040Z,27.40
2019-04-07T06:44:43.545Z,25.43
2019-04-07T06:47:17.778Z,28.40
2019-04-07T06:49:57.414Z,27.97
2019-04-07T06:52:34.588Z,25.90
2019-04-07T06:55:24.615Z,26.20
2019-04-07T06:58:08.413Z,25.77
2019-04-07T07:00:41.803Z,25.37
2019-04-07T07:03:27.168Z,26.27
2019-04-07T07:06:15.105Z,25.73
2019-04-07T07:08:47.280Z,25.80
2019-04-07T07:11:29.266Z,26.97
2019-04-07T07:14:04.193Z,27.30
2019-04-07T07:16:34.984Z,25.80
2019-04-07T07:19:16.913Z,27.20
2019-04-07T07:21:52.457Z,25.20
2019-04-07T07:24:24.942Z,28.77
2019-04-07T07:26:51.069Z,26.60
2019-04-07T07:29:19.495Z,26.97
2019-04-07T07:31:51.952Z,26.27
2019-04-07T07:34:19.749Z,27.40
2019-04-07T07:36:52.299Z,27.70
2019-04-07T07:39:18.809Z,29.07
2019-04-07T07:41:50.372Z,29.60
2019-04-07T07:44:17.710Z,27.63
2019-04-07T07:46:50.413Z,28.57
2019-04-07T07:49:18.021Z,28.43
2019-04-07T07:51:48.538Z,28.70
2019-04-07T07:54:17.292Z,28.43
2019-04-07T07:56:48.538Z,26.73
2019-04-07T07:59:16.601Z,28.67
2019-04-07T08:01:46.998Z,26.83
2019-04-07T08:04:16.109Z,27.07
2019-04-07T08:06:44.843Z,24.70
2019-04-07T08:09:15.462Z,24.90
2019-04-07T08:11:43.568Z,24.50
2019-04-07T08:14:15.514Z,22.40
2019-04-07T08:16:42.507Z,21.33
2019-04-07T08:19:11.060Z,20.43
2019-04-07T08:21:40.392Z,21.57
2019-04-07T08:24:10.175Z,20.10
2019-04-07T08:26:39.230Z,18.10
2019-04-07T08:29:08.742Z,16.80
2019-04-07T08:31:37.349Z,15.23
2019-04-07T08:34:05.758Z,14.57
2019-04-07T08:36:34.783Z,12.40
2019-04-07T08:39:06.131Z,13.20
2019-04-07T08:41:39.703Z,13.47
2019-04-07T08:44:06.251Z,12.07
2019-04-07T08:46:39.840Z,13.60
2019-04-07T08:49:04.930Z,15.37
2019-04-07T08:51:33.638Z,17.77
2019-04-07T08:54:04.503Z,17.73
2019-04-07T08:56:32.933Z,20.00
2019-04-07T08:59:01.449Z,18.47
2019-04-07T09:01:31.434Z,15.67
2019-04-07T09:04:00.234Z,18.47
2019-04-07T09:06:29.619Z,17.67
2019-04-07T09:08:58.821Z,17.90
2019-04-07T09:11:28.353Z,15.87
2019-04-07T09:13:57.091Z,15.47
2019-04-07T09:16:33.690Z,16.37
2019-04-07T09:19:13.727Z,16.67
2019-04-07T09:21:47.577Z,16.00
2019-04-07T09:24:34.247Z,16.70
2019-04-07T09:27:19.460Z,16.47
2019-04-07T09:30:01.158Z,16.30
2019-04-07T09:32:34.646Z,16.60
2019-04-07T09:35:24.872Z,16.70
2019-04-07T09:37:54.884Z,14.50
2019-04-07T09:40:31.842Z,15.33
2019-04-07T09:43:02.103Z,13.47
2019-04-07T09:45:38.539Z,13.80
2019-04-07T09:48:07.561Z,14.53
2019-04-07T09:50:43.842Z,13.07
2019-04-07T09:53:19.401Z,11.50
2019-04-07T09:55:49.127Z,13.63
2019-04-07T09:58:19.307Z,14.63
2019-04-07T10:00:51.267Z,14.13
2019-04-07T10:03:39.476Z,16.40
2019-04-07T10:06:26.008Z,14.50
2019-04-07T10:09:12.693Z,15.40
2019-04-07T10:11:49.500Z,13.27
2019-04-07T10:14:25.838Z,12.00
2019-04-07T10:16:59.483Z,11.40
2019-04-07T10:19:46.956Z,11.07
2019-04-07T10:22:21.194Z,12.80
2019-04-07T10:24:51.751Z,14.77
2019-04-07T10:27:34.003Z,17.20
2019-04-07T10:30:10.039Z,19.20
2019-04-07T10:32:57.276Z,15.10
2019-04-07T10:35:36.463Z,14.97
2019-04-07T10:38:10.012Z,19.17
2019-04-07T10:40:52.355Z,20.30
2019-04-07T10:43:28.896Z,20.50
2019-04-07T10:46:04.569Z,19.90
2019-04-07T10:48:51.093Z,18.60
2019-04-07T10:51:30.791Z,18.70
2019-04-07T10:54:16.100Z,17.40
2019-04-07T10:56:49.824Z,17.10
2019-04-07T10:59:20.939Z,15.80
2019-04-07T11:02:08.270Z,16.80
2019-04-07T11:04:41.350Z,16.80
2019-04-07T11:07:23.828Z,16.47
2019-04-07T11:10:10.207Z,15.10
2019-04-07T11:12:57.164Z,14.23
2019-04-07T11:15:27.426Z,13.20
2019-04-07T11:18:14.231Z,12.30
2019-04-07T11:20:50.926Z,11.40
2019-04-07T11:23:24.178Z,8.63
2019-04-07T11:25:57.639Z,9.60
2019-04-07T11:28:28.984Z,10.33
2019-04-07T11:31:05.670Z,9.90
2019-04-07T11:33:39.517Z,10.60
2019-04-07T11:36:11.285Z,10.43
2019-04-07T11:38:58.498Z,10.13
2019-04-07T11:41:45.980Z,10.23
2019-04-07T11:44:32.313Z,10.10
2019-04-07T11:47:05.451Z,8.83
2019-04-07T11:49:43.898Z,9.03
2019-04-07T11:52:23.512Z,10.70
2019-04-07T11:55:08.615Z,9.40
2019-04-07T11:57:44.766Z,9.80
2019-04-07T12:00:16.458Z,9.13
2019-04-07T12:02:53.557Z,9.53
2019-04-07T12:05:29.750Z,9.23
2019-04-07T12:08:00.630Z,7.87
2019-04-07T12:10:56.168Z,6.77
2019-04-07T12:13:18.956Z,6.70
2019-04-07T12:16:05.652Z,6.57
2019-04-07T12:18:41.696Z,6.37
2019-04-07T12:21:21.749Z,6.63
2019-04-07T12:24:03.226Z,7.10
2019-04-07T12:26:46.291Z,5.77
2019-04-07T12:29:25.470Z,7.67
2019-04-07T12:31:58.364Z,6.40
2019-04-07T12:34:44.022Z,7.00
2019-04-07T12:37:30.487Z,7.43
2019-04-07T12:40:06.471Z,6.87
2019-04-07T12:42:53.433Z,8.30
2019-04-07T12:45:41.779Z,9.07
2019-04-07T12:48:17.927Z,8.03
2019-04-07T12:50:54.135Z,9.07
2019-04-07T12:53:33.510Z,10.10
2019-04-07T12:56:02.515Z,9.40
2019-04-07T12:58:32.833Z,9.60
2019-04-07T13:01:15.297Z,10.30
2019-04-07T13:03:40.870Z,9.47
2019-04-07T13:06:17.842Z,8.00
2019-04-07T13:08:49.026Z,8.60
2019-04-07T13:11:26.502Z,8.23
2019-04-07T13:14:09.881Z,6.93
2019-04-07T13:16:42.705Z,7.13
2019-04-07T13:19:18.855Z,7.77
2019-04-07T13:21:49.063Z,7.70
2019-04-07T13:24:30.255Z,8.60
2019-04-07T13:26:52.025Z,7.77
2019-04-07T13:29:40.105Z,8.87
2019-04-07T13:32:09.395Z,9.30
2019-04-07T13:34:41.942Z,7.80
2019-04-07T13:37:15.630Z,9.17
2019-04-07T13:39:51.402Z,8.67
2019-04-07T13:42:23.050Z,8.10
2019-04-07T13:45:05.446Z,9.07
2019-04-07T13:47:52.479Z,7.40
2019-04-07T13:50:31.926Z,8.47
2019-04-07T13:53:02.334Z,8.10
2019-04-07T13:55:48.711Z,7.63
2019-04-07T13:58:19.621Z,8.50
2019-04-07T14:01:05.141Z,8.37
2019-04-07T14:03:41.734Z,7.77
2019-04-07T14:06:31.536Z,8.13
2019-04-07T14:09:02.401Z,7.80
2019-04-07T14:11:32.853Z,7.00
2019-04-07T14:14:19.564Z,8.13
2019-04-07T14:16:59.438Z,9.33
2019-04-07T14:19:29.930Z,7.80
2019-04-07T14:22:17.543Z,7.20
2019-04-07T14:24:48.310Z,7.10
2019-04-07T14:27:27.634Z,7.90
2019-04-07T14:30:07.774Z,6.77
2019-04-07T14:32:40.544Z,8.63
2019-04-07T14:35:26.952Z,6.10
2019-04-07T14:38:03.708Z,8.67
2019-04-07T14:40:39.933Z,7.40
2019-04-07T14:43:28.181Z,7.40
2019-04-07T14:46:01.745Z,7.20
2019-04-07T14:48:32.563Z,8.20
2019-04-07T14:51:11.720Z,6.57
2019-04-07T14:53:42.064Z,6.40
2019-04-07T14:56:18.614Z,6.93
2019-04-07T14:58:52.220Z,6.50
2019-04-07T15:01:26.456Z,7.03
2019-04-07T15:03:55.645Z,6.07
2019-04-07T15:06:29.209Z,6.07
2019-04-07T15:08:56.385Z,6.33
2019-04-07T15:11:27.004Z,5.90
2019-04-07T15:13:57.905Z,5.77
2019-04-07T15:16:26.364Z,5.97
2019-04-07T15:18:55.137Z,6.07
2019-04-07T15:21:23.958Z,5.90
2019-04-07T15:23:52.970Z,7.50
2019-04-07T15:26:22.104Z,7.63
2019-04-07T15:28:50.709Z,6.73
2019-04-07T15:31:20.318Z,7.00
2019-04-07T15:33:51.603Z,6.93
2019-04-07T15:36:19.740Z,7.33
2019-04-07T15:38:48.605Z,6.53
2019-04-07T15:41:19.126Z,6.70
2019-04-07T15:43:47.509Z,6.53
2019-04-07T15:46:18.079Z,6.80
2019-04-07T15:48:46.560Z,6.80
2019-04-07T15:51:17.578Z,5.80
2019-04-07T15:53:50.355Z,5.90
2019-04-07T15:56:18.427Z,6.37
2019-04-07T15:58:46.487Z,5.10
2019-04-07T16:01:15.049Z,4.40
2019-04-07T16:03:47.707Z,4.73
2019-04-07T16:06:17.432Z,4.40
2019-04-07T16:08:46.841Z,4.40
2019-04-07T16:11:16.634Z,4.93
2019-04-07T16:13:46.284Z,4.90
2019-04-07T16:16:14.945Z,4.67
2019-04-07T16:18:45.328Z,4.83
2019-04-07T16:21:14.307Z,4.83
2019-04-07T16:23:43.027Z,3.37
2019-04-07T16:26:11.873Z,3.83
2019-04-07T16:28:43.261Z,3.87
2019-04-07T16:31:10.628Z,4.10
2019-04-07T16:33:39.798Z,4.13
2019-04-07T16:36:08.675Z,3.90
2019-04-07T16:38:37.290Z,4.20
2019-04-07T16:41:06.568Z,4.40
2019-04-07T16:43:37.674Z,3.90
2019-04-07T16:46:05.603Z,4.20
2019-04-07T16:48:38.670Z,3.83
2019-04-07T16:51:04.806Z,3.90
2019-04-07T16:53:36.508Z,4.00
2019-04-07T16:56:04.104Z,3.50
2019-04-07T16:58:35.322Z,3.80
2019-04-07T17:01:02.999Z,3.67
2019-04-07T17:03:31.698Z,4.30
2019-04-07T17:06:01.635Z,3.90
2019-04-07T17:08:30.508Z,4.40
2019-04-07T17:10:59.571Z,4.27
2019-04-07T17:13:37.065Z,4.10
2019-04-07T17:15:59.933Z,4.60
2019-04-07T17:18:43.200Z,4.30
2019-04-07T17:21:16.241Z,4.07
2019-04-07T17:23:45.494Z,4.00
2019-04-07T17:26:14.573Z,4.73
2019-04-07T17:28:45.219Z,4.17
2019-04-07T17:31:14.315Z,3.77
2019-04-07T17:33:43.251Z,4.13
2019-04-07T17:36:15.347Z,5.00
2019-04-07T17:39:05.257Z,5.60
2019-04-07T17:41:32.946Z,5.10
2019-04-07T17:44:04.440Z,6.53
2019-04-07T17:46:55.951Z,7.87
2019-04-07T17:49:30.914Z,6.37
2019-04-07T17:52:24.615Z,8.17
2019-04-07T17:55:02.840Z,8.57
2019-04-07T17:57:37.139Z,8.90
2019-04-07T18:00:21.727Z,8.97
2019-04-07T18:03:04.543Z,8.43
2019-04-07T18:05:38.732Z,9.90
2019-04-07T18:08:15.826Z,10.10
2019-04-07T18:10:51.743Z,11.40
2019-04-07T18:13:43.448Z,10.90
2019-04-07T18:16:06.317Z,10.97
2019-04-07T18:18:39.579Z,11.70
2019-04-07T18:21:15.418Z,11.10
2019-04-07T18:23:44.461Z,11.10
2019-04-07T18:26:27.255Z,11.10
2019-04-07T18:29:00.584Z,10.40
2019-04-07T18:31:43.497Z,12.83
2019-04-07T18:34:14.273Z,11.80
2019-04-07T18:36:53.135Z,11.57
2019-04-07T18:39:39.782Z,11.90
2019-04-07T18:42:19.599Z,11.73
2019-04-07T18:45:05.278Z,13.53
2019-04-07T18:47:41.692Z,13.33
2019-04-07T18:50:27.489Z,14.90
2019-04-07T18:52:58.402Z,15.80
2019-04-07T18:55:38.991Z,13.30
2019-04-07T18:58:26.665Z,14.90
2019-04-07T19:00:57.623Z,15.60
2019-04-07T19:03:37.378Z,15.10
2019-04-07T19:06:08.694Z,14.47
2019-04-07T19:08:39.160Z,16.03
2019-04-07T19:11:15.967Z,15.10
2019-04-07T19:14:01.806Z,13.37
2019-04-07T19:16:24.642Z,15.70
2019-04-07T19:19:00.699Z,15.13
2019-04-07T19:21:38.759Z,16.00
2019-04-07T19:24:25.083Z,15.07
2019-04-07T19:26:56.225Z,14.30
2019-04-07T19:29:30.086Z,15.97
2019-04-07T19:32:03.791Z,16.10
2019-04-07T19:34:34.503Z,15.10
2019-04-07T19:37:17.272Z,14.97
2019-04-07T19:40:02.910Z,14.70
2019-04-07T19:42:37.681Z,15.00
2019-04-07T19:45:25.426Z,15.03
2019-04-07T19:47:55.165Z,15.70
2019-04-07T19:50:40.593Z,14.50
2019-04-07T19:53:31.031Z,14.07
2019-04-07T19:56:02.506Z,14.53
2019-04-07T19:58:40.896Z,14.67
2019-04-07T20:01:10.930Z,12.63
2019-04-07T20:03:53.921Z,13.23
2019-04-07T20:06:30.298Z,13.27
2019-04-07T20:09:19.279Z,16.57
2019-04-07T20:12:06.451Z,13.87
2019-04-07T20:14:49.325Z,13.87
2019-04-07T20:17:19.719Z,14.73
2019-04-07T20:19:48.679Z,14.00
2019-04-07T20:22:25.912Z,14.90
2019-04-07T20:24:56.649Z,13.03
2019-04-07T20:27:29.840Z,13.97
2019-04-07T20:30:00.534Z,13.53
2019-04-07T20:32:47.743Z,14.50
2019-04-07T20:35:28.422Z,13.10
2019-04-07T20:38:07.959Z,12.43
2019-04-07T20:40:43.922Z,13.13
2019-04-07T20:43:25.411Z,11.97
2019-04-07T20:46:13.633Z,12.67
2019-04-07T20:49:00.470Z,13.00
2019-04-07T20:51:50.671Z,13.70
2019-04-07T20:54:19.543Z,12.80
2019-04-07T20:56:49.864Z,12.47
2019-04-07T20:59:20.475Z,13.83
2019-04-07T21:02:12.526Z,13.43
2019-04-07T21:05:00.496Z,12.13
2019-04-07T21:07:45.973Z,12.87
2019-04-07T21:10:19.032Z,12.73
2019-04-07T21:13:05.435Z,12.20
2019-04-07T21:15:47.770Z,11.93
2019-04-07T21:18:21.457Z,12.60
2019-04-07T21:20:57.719Z,12.63
2019-04-07T21:23:39.780Z,12.60
2019-04-07T21:26:15.810Z,10.90
2019-04-07T21:28:45.884Z,10.77
2019-04-07T21:31:28.142Z,10.40
2019-04-07T21:34:07.479Z,11.60
2019-04-07T21:36:46.365Z,11.30
2019-04-07T21:39:21.967Z,10.07
2019-04-07T21:42:07.445Z,11.40
2019-04-07T21:44:40.457Z,10.50
2019-04-07T21:47:10.543Z,11.10
2019-04-07T21:49:40.669Z,11.03
2019-04-07T21:52:16.147Z,11.13
2019-04-07T21:55:00.197Z,11.30
2019-04-07T21:57:30.293Z,10.90
2019-04-07T22:00:16.658Z,9.90
2019-04-07T22:03:01.708Z,10.97
2019-04-07T22:05:32.794Z,10.60
2019-04-07T22:08:11.670Z,10.57
2019-04-07T22:10:36.217Z,11.63
2019-04-07T22:13:06.656Z,10.43
2019-04-07T22:15:43.048Z,11.80
2019-04-07T22:18:08.528Z,10.63
2019-04-07T22:20:35.337Z,9.90
2019-04-07T22:23:04.379Z,10.07
2019-04-07T22:25:38.369Z,10.27
2019-04-07T22:28:07.671Z,10.23
2019-04-07T22:30:39.912Z,9.63
2019-04-07T22:33:06.525Z,10.03
2019-04-07T22:35:38.317Z,10.20
2019-04-07T22:38:05.250Z,8.67
2019-04-07T22:40:37.532Z,7.90
2019-04-07T22:43:04.244Z,10.50
2019-04-07T22:45:32.677Z,12.07
2019-04-07T22:48:01.355Z,13.10
2019-04-07T22:50:35.479Z,12.40
2019-04-07T22:53:02.445Z,12.80
2019-04-07T22:55:31.222Z,12.97
2019-04-07T22:57:59.890Z,12.50
2019-04-07T23:00:28.804Z,12.33
2019-04-07T23:02:57.348Z,12.30
2019-04-07T23:05:25.786Z,14.27
2019-04-07T23:07:54.453Z,13.77
2019-04-07T23:10:23.262Z,13.17
2019-04-07T23:12:51.836Z,12.40
2019-04-07T23:15:20.772Z,12.53
2019-04-07T23:17:49.388Z,9.63
2019-04-07T23:20:17.983Z,8.27
2019-04-07T23:22:46.701Z,8.40
2019-04-07T23:25:15.549Z,7.87
2019-04-07T23:27:44.069Z,6.80
2019-04-07T23:30:13.357Z,7.63
2019-04-07T23:32:41.829Z,6.80
2019-04-07T23:35:10.465Z,5.33
2019-04-07T23:37:39.078Z,5.30
2019-04-07T23:40:08.644Z,5.27
2019-04-07T23:42:37.088Z,5.80
2019-04-07T23:45:08.225Z,5.60
2019-04-07T23:47:36.819Z,5.53
2019-04-07T23:50:07.090Z,5.20
2019-04-07T23:52:35.660Z,4.57
2019-04-07T23:55:04.954Z,4.47
2019-04-07T23:57:33.386Z,3.87
